sensor_id;sensor_type;location;lat;lon;timestamp;pressure;altitude;pressure_sealevel;temperature;humidity
71043;BME280;58696;52.134;5.500;2024-01-07T00:02:09;101804.88;;;0.46;100.00
71043;BME280;58696;52.134;5.500;2024-01-07T00:04:40;101806.50;;;0.47;100.00
71043;BME280;58696;52.134;5.500;2024-01-07T00:07:06;101815.81;;;0.46;100.00
71043;BME280;58696;52.134;5.500;2024-01-07T00:09:33;101802.44;;;0.44;100.00
71043;BME280;58696;52.134;5.500;2024-01-07T00:12:00;101810.84;;;0.45;100.00
71043;BME280;58696;52.134;5.500;2024-01-07T00:14:26;101816.50;;;0.48;100.00
71043;BME280;58696;52.134;5.500;2024-01-07T00:16:55;101826.56;;;0.50;100.00
71043;BME280;58696;52.134;5.500;2024-01-07T00:19:24;101818.25;;;0.48;100.00
71043;BME280;58696;52.134;5.500;2024-01-07T00:21:51;101821.50;;;0.50;100.00
71043;BME280;58696;52.134;5.500;2024-01-07T00:24:18;101823.13;;;0.51;100.00
71043;BME280;58696;52.134;5.500;2024-01-07T00:26:44;101825.75;;;0.49;100.00
71043;BME280;58696;52.134;5.500;2024-01-07T00:29:11;101834.16;;;0.50;100.00
71043;BME280;58696;52.134;5.500;2024-01-07T00:31:40;101834.69;;;0.55;100.00
71043;BME280;58696;52.134;5.500;2024-01-07T00:34:09;101831.63;;;0.50;100.00
71043;BME280;58696;52.134;5.500;2024-01-07T00:36:36;101836.47;;;0.53;100.00
71043;BME280;58696;52.134;5.500;2024-01-07T00:39:02;101836.69;;;0.50;100.00
71043;BME280;58696;52.134;5.500;2024-01-07T00:41:29;101836.94;;;0.45;100.00
71043;BME280;58696;52.134;5.500;2024-01-07T00:43:58;101833.59;;;0.45;100.00
71043;BME280;58696;52.134;5.500;2024-01-07T00:46:25;101840.94;;;0.49;100.00
71043;BME280;58696;52.134;5.500;2024-01-07T00:48:53;101839.19;;;0.50;100.00
71043;BME280;58696;52.134;5.500;2024-01-07T00:51:20;101844.34;;;0.48;100.00
71043;BME280;58696;52.134;5.500;2024-01-07T00:53:49;101842.81;;;0.46;100.00
71043;BME280;58696;52.134;5.500;2024-01-07T00:56:16;101851.22;;;0.46;100.00
71043;BME280;58696;52.134;5.500;2024-01-07T00:58:42;101851.22;;;0.46;100.00
71043;BME280;58696;52.134;5.500;2024-01-07T01:01:11;101846.78;;;0.50;100.00
71043;BME280;58696;52.134;5.500;2024-01-07T01:03:41;101852.13;;;0.45;100.00
71043;BME280;58696;52.134;5.500;2024-01-07T01:06:07;101859.81;;;0.44;100.00
71043;BME280;58696;52.134;5.500;2024-01-07T01:08:43;101853.75;;;0.46;100.00
71043;BME280;58696;52.134;5.500;2024-01-07T01:11:09;101860.34;;;0.49;100.00
71043;BME280;58696;52.134;5.500;2024-01-07T01:13:39;101860.50;;;0.46;100.00
71043;BME280;58696;52.134;5.500;2024-01-07T01:16:08;101861.88;;;0.51;100.00
71043;BME280;58696;52.134;5.500;2024-01-07T01:18:35;101870.09;;;0.41;100.00
71043;BME280;58696;52.134;5.500;2024-01-07T01:21:04;101869.44;;;0.37;100.00
71043;BME280;58696;52.134;5.500;2024-01-07T01:23:30;101875.16;;;0.41;100.00
71043;BME280;58696;52.134;5.500;2024-01-07T01:25:57;101872.63;;;0.41;100.00
71043;BME280;58696;52.134;5.500;2024-01-07T01:28:23;101880.84;;;0.44;100.00
71043;BME280;58696;52.134;5.500;2024-01-07T01:30:50;101882.56;;;0.44;100.00
71043;BME280;58696;52.134;5.500;2024-01-07T01:33:19;101872.78;;;0.38;100.00
71043;BME280;58696;52.134;5.500;2024-01-07T01:35:48;101880.56;;;0.35;100.00
71043;BME280;58696;52.134;5.500;2024-01-07T01:38:15;101880.31;;;0.39;100.00
71043;BME280;58696;52.134;5.500;2024-01-07T01:40:43;101882.91;;;0.38;100.00
71043;BME280;58696;52.134;5.500;2024-01-07T01:43:22;101882.91;;;0.38;100.00
71043;BME280;58696;52.134;5.500;2024-01-07T01:45:49;101889.59;;;0.39;100.00
71043;BME280;58696;52.134;5.500;2024-01-07T01:48:15;101897.34;;;0.36;100.00
71043;BME280;58696;52.134;5.500;2024-01-07T01:50:42;101897.44;;;0.34;100.00
71043;BME280;58696;52.134;5.500;2024-01-07T01:53:11;101906.00;;;0.32;100.00
71043;BME280;58696;52.134;5.500;2024-01-07T01:55:38;101900.88;;;0.33;100.00
71043;BME280;58696;52.134;5.500;2024-01-07T01:58:11;101911.63;;;0.37;100.00
71043;BME280;58696;52.134;5.500;2024-01-07T02:00:40;101915.25;;;0.33;100.00
71043;BME280;58696;52.134;5.500;2024-01-07T02:03:07;101921.13;;;0.33;100.00
71043;BME280;58696;52.134;5.500;2024-01-07T02:05:34;101918.66;;;0.32;100.00
71043;BME280;58696;52.134;5.500;2024-01-07T02:08:04;101923.66;;;0.33;100.00
71043;BME280;58696;52.134;5.500;2024-01-07T02:10:33;101925.16;;;0.36;100.00
71043;BME280;58696;52.134;5.500;2024-01-07T02:13:05;101929.25;;;0.38;100.00
71043;BME280;58696;52.134;5.500;2024-01-07T02:15:32;101929.16;;;0.40;100.00
71043;BME280;58696;52.134;5.500;2024-01-07T02:18:03;101921.94;;;0.34;100.00
71043;BME280;58696;52.134;5.500;2024-01-07T02:20:32;101928.69;;;0.33;100.00
71043;BME280;58696;52.134;5.500;2024-01-07T02:23:00;101922.91;;;0.31;100.00
71043;BME280;58696;52.134;5.500;2024-01-07T02:25:37;101928.88;;;0.30;100.00
71043;BME280;58696;52.134;5.500;2024-01-07T02:28:06;101933.00;;;0.31;100.00
71043;BME280;58696;52.134;5.500;2024-01-07T02:30:33;101941.41;;;0.32;100.00
71043;BME280;58696;52.134;5.500;2024-01-07T02:33:06;101943.06;;;0.33;100.00
71043;BME280;58696;52.134;5.500;2024-01-07T02:35:32;101946.31;;;0.35;100.00
71043;BME280;58696;52.134;5.500;2024-01-07T02:37:59;101941.97;;;0.37;100.00
71043;BME280;58696;52.134;5.500;2024-01-07T02:40:25;101946.09;;;0.38;100.00
71043;BME280;58696;52.134;5.500;2024-01-07T02:42:52;101946.41;;;0.33;100.00
71043;BME280;58696;52.134;5.500;2024-01-07T02:45:19;101942.22;;;0.32;100.00
71043;BME280;58696;52.134;5.500;2024-01-07T02:47:46;101943.31;;;0.28;100.00
71043;BME280;58696;52.134;5.500;2024-01-07T02:50:15;101943.94;;;0.32;100.00
71043;BME280;58696;52.134;5.500;2024-01-07T02:52:42;101952.44;;;0.31;100.00
71043;BME280;58696;52.134;5.500;2024-01-07T02:55:09;101949.09;;;0.30;100.00
71043;BME280;58696;52.134;5.500;2024-01-07T02:57:36;101946.56;;;0.30;100.00
71043;BME280;58696;52.134;5.500;2024-01-07T03:00:05;101957.47;;;0.31;100.00
71043;BME280;58696;52.134;5.500;2024-01-07T03:02:34;101948.28;;;0.30;100.00
71043;BME280;58696;52.134;5.500;2024-01-07T03:05:01;101949.19;;;0.29;100.00
71043;BME280;58696;52.134;5.500;2024-01-07T03:07:28;101965.16;;;0.29;100.00
71043;BME280;58696;52.134;5.500;2024-01-07T03:09:54;101961.72;;;0.30;100.00
71043;BME280;58696;52.134;5.500;2024-01-07T03:12:25;101961.72;;;0.30;100.00
71043;BME280;58696;52.134;5.500;2024-01-07T03:14:52;101964.16;;;0.32;100.00
71043;BME280;58696;52.134;5.500;2024-01-07T03:17:21;101963.44;;;0.30;100.00
71043;BME280;58696;52.134;5.500;2024-01-07T03:19:51;101967.69;;;0.29;100.00
71043;BME280;58696;52.134;5.500;2024-01-07T03:22:18;101973.47;;;0.31;100.00
71043;BME280;58696;52.134;5.500;2024-01-07T03:24:49;101977.44;;;0.35;100.00
71043;BME280;58696;52.134;5.500;2024-01-07T03:27:16;101981.78;;;0.33;100.00
71043;BME280;58696;52.134;5.500;2024-01-07T03:29:45;101991.97;;;0.32;100.00
71043;BME280;58696;52.134;5.500;2024-01-07T03:32:13;101989.63;;;0.29;100.00
71043;BME280;58696;52.134;5.500;2024-01-07T03:34:42;101996.41;;;0.28;100.00
71043;BME280;58696;52.134;5.500;2024-01-07T03:37:09;101993.06;;;0.28;100.00
71043;BME280;58696;52.134;5.500;2024-01-07T03:39:38;101988.88;;;0.26;100.00
71043;BME280;58696;52.134;5.500;2024-01-07T03:42:04;102000.81;;;0.24;100.00
71043;BME280;58696;52.134;5.500;2024-01-07T03:44:38;101989.44;;;0.17;100.00
71043;BME280;58696;52.134;5.500;2024-01-07T03:47:05;101991.84;;;0.19;100.00
71043;BME280;58696;52.134;5.500;2024-01-07T03:49:36;101996.09;;;0.18;100.00
71043;BME280;58696;52.134;5.500;2024-01-07T03:52:05;102004.34;;;0.22;100.00
71043;BME280;58696;52.134;5.500;2024-01-07T03:54:34;102000.09;;;0.22;100.00
71043;BME280;58696;52.134;5.500;2024-01-07T03:57:03;101997.72;;;0.19;100.00
71043;BME280;58696;52.134;5.500;2024-01-07T03:59:30;102012.91;;;0.19;100.00
71043;BME280;58696;52.134;5.500;2024-01-07T04:01:59;102013.53;;;0.23;100.00
71043;BME280;58696;52.134;5.500;2024-01-07T04:04:26;102015.41;;;0.19;100.00
71043;BME280;58696;52.134;5.500;2024-01-07T04:06:52;102012.25;;;0.16;100.00
71043;BME280;58696;52.134;5.500;2024-01-07T04:09:21;102014.94;;;0.13;100.00
71043;BME280;58696;52.134;5.500;2024-01-07T04:11:50;102019.00;;;0.15;100.00
71043;BME280;58696;52.134;5.500;2024-01-07T04:14:17;102016.31;;;0.18;100.00
71043;BME280;58696;52.134;5.500;2024-01-07T04:16:45;102031.50;;;0.18;100.00
71043;BME280;58696;52.134;5.500;2024-01-07T04:19:14;102029.63;;;0.22;100.00
71043;BME280;58696;52.134;5.500;2024-01-07T04:21:45;102033.78;;;0.23;100.00
71043;BME280;58696;52.134;5.500;2024-01-07T04:24:15;102033.94;;;0.20;100.00
71043;BME280;58696;52.134;5.500;2024-01-07T04:26:41;102043.06;;;0.22;100.00
71043;BME280;58696;52.134;5.500;2024-01-07T04:29:08;102037.25;;;0.20;100.00
71043;BME280;58696;52.134;5.500;2024-01-07T04:31:34;102042.06;;;0.25;100.00
71043;BME280;58696;52.134;5.500;2024-01-07T04:34:04;102045.75;;;0.19;100.00
71043;BME280;58696;52.134;5.500;2024-01-07T04:36:35;102046.47;;;0.21;100.00
71043;BME280;58696;52.134;5.500;2024-01-07T04:39:02;102048.03;;;0.24;100.00
71043;BME280;58696;52.134;5.500;2024-01-07T04:41:31;102050.47;;;0.25;100.00
71043;BME280;58696;52.134;5.500;2024-01-07T04:44:00;102057.44;;;0.22;100.00
71043;BME280;58696;52.134;5.500;2024-01-07T04:46:29;102060.81;;;0.21;100.00
71043;BME280;58696;52.134;5.500;2024-01-07T04:48:56;102061.56;;;0.23;100.00
71043;BME280;58696;52.134;5.500;2024-01-07T04:51:22;102064.91;;;0.23;100.00
71043;BME280;58696;52.134;5.500;2024-01-07T04:53:49;102063.19;;;0.24;100.00
71043;BME280;58696;52.134;5.500;2024-01-07T04:56:15;102064.91;;;0.23;100.00
71043;BME280;58696;52.134;5.500;2024-01-07T04:58:47;102069.22;;;0.21;100.00
71043;BME280;58696;52.134;5.500;2024-01-07T05:01:14;102074.22;;;0.23;100.00
71043;BME280;58696;52.134;5.500;2024-01-07T05:03:40;102082.72;;;0.22;100.00
71043;BME280;58696;52.134;5.500;2024-01-07T05:06:11;102083.75;;;0.18;100.00
71043;BME280;58696;52.134;5.500;2024-01-07T05:08:40;102084.56;;;0.18;100.00
71043;BME280;58696;52.134;5.500;2024-01-07T05:11:07;102085.38;;;0.19;100.00
71043;BME280;58696;52.134;5.500;2024-01-07T05:13:34;102097.22;;;0.18;100.00
71043;BME280;58696;52.134;5.500;2024-01-07T05:16:04;102094.78;;;0.17;100.00
71043;BME280;58696;52.134;5.500;2024-01-07T05:18:33;102099.91;;;0.15;100.00
71043;BME280;58696;52.134;5.500;2024-01-07T05:21:05;102108.22;;;0.17;100.00
71043;BME280;58696;52.134;5.500;2024-01-07T05:23:35;102113.19;;;0.19;100.00
71043;BME280;58696;52.134;5.500;2024-01-07T05:26:03;102110.56;;;0.20;100.00
71043;BME280;58696;52.134;5.500;2024-01-07T05:28:30;102110.56;;;0.20;100.00
71043;BME280;58696;52.134;5.500;2024-01-07T05:30:59;102113.75;;;0.24;100.00
71043;BME280;58696;52.134;5.500;2024-01-07T05:33:26;102112.63;;;0.30;100.00
71043;BME280;58696;52.134;5.500;2024-01-07T05:35:55;102125.41;;;0.26;100.00
71043;BME280;58696;52.134;5.500;2024-01-07T05:38:25;102120.44;;;0.25;100.00
71043;BME280;58696;52.134;5.500;2024-01-07T05:40:53;102120.63;;;0.22;100.00
71043;BME280;58696;52.134;5.500;2024-01-07T05:43:20;102120.78;;;0.19;100.00
71043;BME280;58696;52.134;5.500;2024-01-07T05:45:49;102127.47;;;0.20;100.00
71043;BME280;58696;52.134;5.500;2024-01-07T05:48:20;102135.84;;;0.20;100.00
71043;BME280;58696;52.134;5.500;2024-01-07T05:50:50;102141.09;;;0.17;100.00
71043;BME280;58696;52.134;5.500;2024-01-07T05:53:17;102142.72;;;0.18;100.00
71043;BME280;58696;52.134;5.500;2024-01-07T05:55:43;102144.25;;;0.21;100.00
71043;BME280;58696;52.134;5.500;2024-01-07T05:58:12;102148.50;;;0.20;100.00
71043;BME280;58696;52.134;5.500;2024-01-07T06:00:41;102147.59;;;0.21;100.00
71043;BME280;58696;52.134;5.500;2024-01-07T06:03:10;102153.63;;;0.19;100.00
71043;BME280;58696;52.134;5.500;2024-01-07T06:05:39;102157.78;;;0.20;100.00
71043;BME280;58696;52.134;5.500;2024-01-07T06:08:08;102158.78;;;0.17;100.00
71043;BME280;58696;52.134;5.500;2024-01-07T06:10:36;102161.22;;;0.19;100.00
71043;BME280;58696;52.134;5.500;2024-01-07T06:13:06;102160.16;;;0.23;100.00
71043;BME280;58696;52.134;5.500;2024-01-07T06:15:33;102171.00;;;0.25;100.00
71043;BME280;58696;52.134;5.500;2024-01-07T06:17:59;102165.28;;;0.21;100.00
71043;BME280;58696;52.134;5.500;2024-01-07T06:20:29;102175.41;;;0.21;100.00
71043;BME280;58696;52.134;5.500;2024-01-07T06:22:55;102177.13;;;0.21;100.00
71043;BME280;58696;52.134;5.500;2024-01-07T06:25:24;102183.88;;;0.20;100.00
71043;BME280;58696;52.134;5.500;2024-01-07T06:27:53;102195.06;;;0.16;100.00
71043;BME280;58696;52.134;5.500;2024-01-07T06:30:23;102188.38;;;0.15;100.00
71043;BME280;58696;52.134;5.500;2024-01-07T06:32:53;102195.06;;;0.16;100.00
71043;BME280;58696;52.134;5.500;2024-01-07T06:35:24;102201.00;;;0.15;100.00
71043;BME280;58696;52.134;5.500;2024-01-07T06:37:51;102199.28;;;0.16;100.00
71043;BME280;58696;52.134;5.500;2024-01-07T06:40:20;102202.66;;;0.16;100.00
71043;BME280;58696;52.134;5.500;2024-01-07T06:42:47;102201.81;;;0.16;100.00
71043;BME280;58696;52.134;5.500;2024-01-07T06:45:20;102208.75;;;0.12;100.00
71043;BME280;58696;52.134;5.500;2024-01-07T06:47:47;102212.91;;;0.13;100.00
71043;BME280;58696;52.134;5.500;2024-01-07T06:50:14;102219.84;;;0.10;100.00
71043;BME280;58696;52.134;5.500;2024-01-07T06:52:40;102213.16;;;0.09;100.00
71043;BME280;58696;52.134;5.500;2024-01-07T06:55:09;102221.63;;;0.08;100.00
71043;BME280;58696;52.134;5.500;2024-01-07T06:57:38;102226.69;;;0.08;100.00
71043;BME280;58696;52.134;5.500;2024-01-07T07:00:08;102228.41;;;0.07;100.00
71043;BME280;58696;52.134;5.500;2024-01-07T07:02:35;102234.34;;;0.06;100.00
71043;BME280;58696;52.134;5.500;2024-01-07T07:05:05;102234.34;;;0.06;100.00
71043;BME280;58696;52.134;5.500;2024-01-07T07:07:31;102241.94;;;0.06;100.00
71043;BME280;58696;52.134;5.500;2024-01-07T07:09:58;102250.38;;;0.05;100.00
71043;BME280;58696;52.134;5.500;2024-01-07T07:12:33;102255.53;;;0.04;100.00
71043;BME280;58696;52.134;5.500;2024-01-07T07:14:59;102257.16;;;0.05;100.00
71043;BME280;58696;52.134;5.500;2024-01-07T07:17:26;102254.63;;;0.05;100.00
71043;BME280;58696;52.134;5.500;2024-01-07T07:19:53;102255.44;;;0.05;100.00
71043;BME280;58696;52.134;5.500;2024-01-07T07:22:22;102258.88;;;0.04;100.00
71043;BME280;58696;52.134;5.500;2024-01-07T07:24:49;102266.53;;;0.03;100.00
71043;BME280;58696;52.134;5.500;2024-01-07T07:27:18;102265.72;;;0.02;100.00
71043;BME280;58696;52.134;5.500;2024-01-07T07:29:44;102277.56;;;0.02;100.00
71043;BME280;58696;52.134;5.500;2024-01-07T07:32:11;102275.97;;;-0.01;100.00
71043;BME280;58696;52.134;5.500;2024-01-07T07:34:37;102276.06;;;-0.03;100.00
71043;BME280;58696;52.134;5.500;2024-01-07T07:37:07;102276.16;;;-0.04;100.00
71043;BME280;58696;52.134;5.500;2024-01-07T07:39:34;102280.31;;;-0.03;100.00
71043;BME280;58696;52.134;5.500;2024-01-07T07:42:00;102280.41;;;-0.05;100.00
71043;BME280;58696;52.134;5.500;2024-01-07T07:44:27;102284.63;;;-0.05;100.00
71043;BME280;58696;52.134;5.500;2024-01-07T07:46:53;102300.91;;;-0.11;100.00
71043;BME280;58696;52.134;5.500;2024-01-07T07:49:22;102304.25;;;-0.10;100.00
71043;BME280;58696;52.134;5.500;2024-01-07T07:51:55;102306.03;;;-0.12;100.00
71043;BME280;58696;52.134;5.500;2024-01-07T07:54:21;102314.59;;;-0.15;100.00
71043;BME280;58696;52.134;5.500;2024-01-07T07:56:48;102323.78;;;-0.14;100.00
71043;BME280;58696;52.134;5.500;2024-01-07T07:59:19;102319.66;;;-0.15;100.00
71043;BME280;58696;52.134;5.500;2024-01-07T08:01:46;102324.69;;;-0.15;100.00
71043;BME280;58696;52.134;5.500;2024-01-07T08:04:16;102332.34;;;-0.16;100.00
71043;BME280;58696;52.134;5.500;2024-01-07T08:06:43;102335.75;;;-0.17;100.00
71043;BME280;58696;52.134;5.500;2024-01-07T08:09:13;102334.13;;;-0.18;100.00
71043;BME280;58696;52.134;5.500;2024-01-07T08:11:42;102350.09;;;-0.18;100.00
71043;BME280;58696;52.134;5.500;2024-01-07T08:14:11;102352.72;;;-0.19;100.00
71043;BME280;58696;52.134;5.500;2024-01-07T08:16:40;102358.72;;;-0.22;100.00
71043;BME280;58696;52.134;5.500;2024-01-07T08:19:09;102355.38;;;-0.22;100.00
71043;BME280;58696;52.134;5.500;2024-01-07T08:21:39;102364.53;;;-0.20;100.00
71043;BME280;58696;52.134;5.500;2024-01-07T08:24:06;102355.31;;;-0.21;100.00
71043;BME280;58696;52.134;5.500;2024-01-07T08:26:33;102358.56;;;-0.19;100.00
71043;BME280;58696;52.134;5.500;2024-01-07T08:29:02;102366.97;;;-0.18;100.00
71043;BME280;58696;52.134;5.500;2024-01-07T08:31:32;102369.50;;;-0.18;100.00
71043;BME280;58696;52.134;5.500;2024-01-07T08:34:01;102379.75;;;-0.21;100.00
71043;BME280;58696;52.134;5.500;2024-01-07T08:36:28;102374.63;;;-0.20;100.00
71043;BME280;58696;52.134;5.500;2024-01-07T08:38:55;102372.09;;;-0.20;100.00
71043;BME280;58696;52.134;5.500;2024-01-07T08:41:22;102382.94;;;-0.18;100.00
71043;BME280;58696;52.134;5.500;2024-01-07T08:43:49;102387.19;;;-0.18;100.00
71043;BME280;58696;52.134;5.500;2024-01-07T08:46:15;102381.19;;;-0.16;100.00
71043;BME280;58696;52.134;5.500;2024-01-07T08:48:42;102397.16;;;-0.15;100.00
71043;BME280;58696;52.134;5.500;2024-01-07T08:51:11;102399.81;;;-0.18;100.00
71043;BME280;58696;52.134;5.500;2024-01-07T08:53:38;102397.97;;;-0.15;100.00
71043;BME280;58696;52.134;5.500;2024-01-07T08:56:05;102404.72;;;-0.15;100.00
71043;BME280;58696;52.134;5.500;2024-01-07T08:58:35;102411.53;;;-0.17;100.00
71043;BME280;58696;52.134;5.500;2024-01-07T09:01:05;102409.03;;;-0.17;100.00
71043;BME280;58696;52.134;5.500;2024-01-07T09:03:32;102419.94;;;-0.17;100.00
71043;BME280;58696;52.134;5.500;2024-01-07T09:06:01;102420.84;;;-0.18;100.00
71043;BME280;58696;52.134;5.500;2024-01-07T09:08:30;102421.75;;;-0.19;100.00
71043;BME280;58696;52.134;5.500;2024-01-07T09:11:03;102424.19;;;-0.17;100.00
71043;BME280;58696;52.134;5.500;2024-01-07T09:13:34;102433.34;;;-0.15;100.00
71043;BME280;58696;52.134;5.500;2024-01-07T09:16:00;102434.16;;;-0.14;100.00
71043;BME280;58696;52.134;5.500;2024-01-07T09:18:30;102439.13;;;-0.13;100.00
71043;BME280;58696;52.134;5.500;2024-01-07T09:20:57;102438.91;;;-0.08;100.00
71043;BME280;58696;52.134;5.500;2024-01-07T09:23:24;102451.53;;;-0.08;100.00
71043;BME280;58696;52.134;5.500;2024-01-07T09:25:51;102454.88;;;-0.08;100.00
71043;BME280;58696;52.134;5.500;2024-01-07T09:28:20;102459.88;;;-0.06;100.00
71043;BME280;58696;52.134;5.500;2024-01-07T09:30:46;102466.50;;;-0.04;100.00
71043;BME280;58696;52.134;5.500;2024-01-07T09:33:19;102470.53;;;0.01;100.00
71043;BME280;58696;52.134;5.500;2024-01-07T09:35:46;102473.06;;;0.01;100.00
71043;BME280;58696;52.134;5.500;2024-01-07T09:38:12;102470.56;;;-0.01;100.00
71043;BME280;58696;52.134;5.500;2024-01-07T09:40:41;102479.06;;;-0.02;100.00
71043;BME280;58696;52.134;5.500;2024-01-07T09:43:08;102478.97;;;-0.01;100.00
71043;BME280;58696;52.134;5.500;2024-01-07T09:45:41;102481.44;;;0.01;100.00
71043;BME280;58696;52.134;5.500;2024-01-07T09:48:08;102483.88;;;0.03;100.00
71043;BME280;58696;52.134;5.500;2024-01-07T09:50:38;102489.94;;;0.00;100.00
71043;BME280;58696;52.134;5.500;2024-01-07T09:53:07;102494.69;;;0.06;100.00
71043;BME280;58696;52.134;5.500;2024-01-07T09:55:44;102500.59;;;0.05;100.00
71043;BME280;58696;52.134;5.500;2024-01-07T09:58:14;102498.38;;;-0.01;100.00
71043;BME280;58696;52.134;5.500;2024-01-07T10:00:46;102494.00;;;0.03;100.00
71043;BME280;58696;52.134;5.500;2024-01-07T10:03:13;102509.84;;;0.06;100.00
71043;BME280;58696;52.134;5.500;2024-01-07T10:05:40;102505.41;;;0.11;100.00
71043;BME280;58696;52.134;5.500;2024-01-07T10:08:09;102506.94;;;0.14;100.00
71043;BME280;58696;52.134;5.500;2024-01-07T10:10:36;102515.63;;;0.08;100.00
71043;BME280;58696;52.134;5.500;2024-01-07T10:13:06;102508.28;;;0.04;100.00
71043;BME280;58696;52.134;5.500;2024-01-07T10:15:32;102507.53;;;0.02;100.00
71043;BME280;58696;52.134;5.500;2024-01-07T10:18:03;102515.31;;;-0.03;100.00
71043;BME280;58696;52.134;5.500;2024-01-07T10:20:31;102513.19;;;0.07;100.00
71043;BME280;58696;52.134;5.500;2024-01-07T10:22:58;102506.44;;;0.24;100.00
71043;BME280;58696;52.134;5.500;2024-01-07T10:25:24;102521.47;;;0.62;100.00
71043;BME280;58696;52.134;5.500;2024-01-07T10:27:51;102524.41;;;0.70;100.00
71043;BME280;58696;52.134;5.500;2024-01-07T10:30:21;102522.72;;;0.71;100.00
71043;BME280;58696;52.134;5.500;2024-01-07T10:32:48;102532.31;;;0.64;100.00
71043;BME280;58696;52.134;5.500;2024-01-07T10:35:18;102539.16;;;0.79;100.00
71043;BME280;58696;52.134;5.500;2024-01-07T10:37:52;102544.41;;;0.92;100.00
71043;BME280;58696;52.134;5.500;2024-01-07T10:40:27;102548.94;;;1.03;100.00
71043;BME280;58696;52.134;5.500;2024-01-07T10:42:56;102558.38;;;1.17;100.00
71043;BME280;58696;52.134;5.500;2024-01-07T10:45:27;102556.97;;;1.11;98.73
71043;BME280;58696;52.134;5.500;2024-01-07T10:47:58;102555.66;;;1.04;99.15
71043;BME280;58696;52.134;5.500;2024-01-07T10:50:26;102562.81;;;0.78;99.49
71043;BME280;58696;52.134;5.500;2024-01-07T10:52:58;102556.28;;;0.74;99.62
71043;BME280;58696;52.134;5.500;2024-01-07T10:55:33;102568.03;;;0.75;99.76
71043;BME280;58696;52.134;5.500;2024-01-07T10:58:06;102570.22;;;0.66;98.55
71043;BME280;58696;52.134;5.500;2024-01-07T11:00:36;102559.72;;;0.56;99.45
71043;BME280;58696;52.134;5.500;2024-01-07T11:03:28;102561.81;;;0.65;99.51
71043;BME280;58696;52.134;5.500;2024-01-07T11:06:11;102557.38;;;1.03;97.03
71043;BME280;58696;52.134;5.500;2024-01-07T11:11:16;102552.94;;;1.07;95.46
71043;BME280;58696;52.134;5.500;2024-01-07T11:13:46;102561.16;;;0.95;93.06
71043;BME280;58696;52.134;5.500;2024-01-07T11:16:12;102565.97;;;1.17;93.47
71043;BME280;58696;52.134;5.500;2024-01-07T11:18:45;102566.63;;;1.20;94.51
71043;BME280;58696;52.134;5.500;2024-01-07T11:21:20;102563.25;;;1.37;94.87
71043;BME280;58696;52.134;5.500;2024-01-07T11:23:47;102565.59;;;1.40;94.09
71043;BME280;58696;52.134;5.500;2024-01-07T11:26:14;102564.81;;;1.55;94.04
71043;BME280;58696;52.134;5.500;2024-01-07T11:31:15;102563.66;;;1.77;90.47
71043;BME280;58696;52.134;5.500;2024-01-07T11:33:43;102556.63;;;1.98;91.57
71043;BME280;58696;52.134;5.500;2024-01-07T11:36:15;102565.19;;;2.11;90.62
71043;BME280;58696;52.134;5.500;2024-01-07T11:38:47;102564.91;;;2.01;91.00
71043;BME280;58696;52.134;5.500;2024-01-07T11:41:20;102579.31;;;1.85;90.68
71043;BME280;58696;52.134;5.500;2024-01-07T11:43:57;102562.28;;;1.71;87.29
71043;BME280;58696;52.134;5.500;2024-01-07T11:46:32;102571.03;;;1.66;90.43
71043;BME280;58696;52.134;5.500;2024-01-07T11:49:01;102564.81;;;1.55;89.96
71043;BME280;58696;52.134;5.500;2024-01-07T11:51:31;102559.78;;;1.22;91.30
71043;BME280;58696;52.134;5.500;2024-01-07T11:54:00;102564.69;;;1.41;90.20
71043;BME280;58696;52.134;5.500;2024-01-07T11:56:30;102558.03;;;1.72;90.10
71043;BME280;58696;52.134;5.500;2024-01-07T11:58:59;102569.78;;;1.89;89.72
71043;BME280;58696;52.134;5.500;2024-01-07T12:01:28;102561.13;;;1.93;88.78
71043;BME280;58696;52.134;5.500;2024-01-07T12:03:57;102562.03;;;2.07;89.08
71043;BME280;58696;52.134;5.500;2024-01-07T12:06:24;102560.88;;;1.97;88.73
71043;BME280;58696;52.134;5.500;2024-01-07T12:08:51;102562.84;;;2.08;87.51
71043;BME280;58696;52.134;5.500;2024-01-07T12:11:19;102557.69;;;2.09;88.60
71043;BME280;58696;52.134;5.500;2024-01-07T12:13:46;102555.81;;;1.97;87.62
71043;BME280;58696;52.134;5.500;2024-01-07T12:16:13;102563.00;;;1.73;88.08
71043;BME280;58696;52.134;5.500;2024-01-07T12:18:39;102565.53;;;1.73;88.95
71043;BME280;58696;52.134;5.500;2024-01-07T12:21:09;102569.31;;;1.82;89.42
71043;BME280;58696;52.134;5.500;2024-01-07T12:23:36;102576.09;;;1.81;86.85
71043;BME280;58696;52.134;5.500;2024-01-07T12:26:13;102568.38;;;1.36;86.50
71043;BME280;58696;52.134;5.500;2024-01-07T12:28:41;102573.53;;;1.01;88.92
71043;BME280;58696;52.134;5.500;2024-01-07T12:31:10;102577.47;;;0.89;89.76
71043;BME280;58696;52.134;5.500;2024-01-07T12:33:39;102578.16;;;0.93;90.53
71043;BME280;58696;52.134;5.500;2024-01-07T12:36:11;102580.41;;;0.82;88.03
71043;BME280;58696;52.134;5.500;2024-01-07T12:38:38;102590.16;;;0.72;89.11
71043;BME280;58696;52.134;5.500;2024-01-07T12:41:05;102588.56;;;0.52;88.06
71043;BME280;58696;52.134;5.500;2024-01-07T12:43:34;102599.09;;;0.43;89.74
71043;BME280;58696;52.134;5.500;2024-01-07T12:46:03;102586.41;;;0.44;90.41
71043;BME280;58696;52.134;5.500;2024-01-07T12:48:32;102594.22;;;0.57;89.70
71043;BME280;58696;52.134;5.500;2024-01-07T12:51:00;102588.66;;;0.68;88.51
71043;BME280;58696;52.134;5.500;2024-01-07T12:53:29;102591.19;;;0.68;87.50
71043;BME280;58696;52.134;5.500;2024-01-07T12:55:58;102601.97;;;0.71;87.70
71043;BME280;58696;52.134;5.500;2024-01-07T12:58:27;102595.63;;;0.80;86.86
71043;BME280;58696;52.134;5.500;2024-01-07T13:00:54;102601.75;;;0.93;87.35
71043;BME280;58696;52.134;5.500;2024-01-07T13:03:21;102613.88;;;1.04;85.97